Messwerte Saipan / Marianas

Temperatur

Temperatur
°C
1560981600 8.00 8.00 30
1560985200 9.00 9.00 30
1560988800 10.00 10.00 31
1560992400 11.00 11.00 32
1560996000 12.00 12.00 32
1560999600 13.00 13.00 32
1561003200 14.00 14.00 32
1561006800 15.00 15.00 32
1561010400 16.00 16.00 32
1561014000 17.00 17.00 31
1561017600 18.00 18.00 29
1561021200 19.00 19.00 28
1561024800 20.00 20.00
1561028400 21.00 21.00 28
1561032000 22.00 22.00 27
1561035600 23.00 23.00 26
1561039200 0.00 0.00
1561042800 1.00 1.00 27
1561046400 2.00 2.00
1561050000 3.00 3.00 27
1561053600 4.00 4.00 27
1561057200 5.00 5.00 28
1561060800 6.00 6.00 28
1561064400 7.00 7.00 28

Aktuellste Messwerte

Wettercharakter
Wetter: wechselnd bewölkt
Temperatur
29 °C
Feuchtigkeit
80 %
Wind
20 km/hWindrichtung: Ost
Luftdruck
1011 hPa
Messzeit: 21. Juni 2019, 8.00Datenquelle: METAR

Weitere Messstationen in der Nähe

Messstation Temperatur Entfernung
Tinian Island 30 °C 19 km
Rota / Mariana 27 °C 118 km
Anderson Air Foce Base/Guam 28 °C 193 km
Agana/Guam 28 °C 210 km

Wind

Windrichtung Böen Mittelwind
° km/h km/h
1560981600 8.00 7.00 - 8.00 80° 25
1560985200 9.00 8.00 - 9.00 100° 25
1560988800 10.00 9.00 - 10.00 110° 40 25
1560992400 11.00 10.00 - 11.00 110° 20
1560996000 12.00 11.00 - 12.00 90° 25
1560999600 13.00 12.00 - 13.00 90° 25
1561003200 14.00 13.00 - 14.00 100° 20
1561006800 15.00 14.00 - 15.00 110° 30
1561010400 16.00 15.00 - 16.00 90° 25
1561014000 17.00 16.00 - 17.00 100° 25
1561017600 18.00 17.00 - 18.00 100° 20
1561021200 19.00 18.00 - 19.00 120° 20
1561024800 20.00 19.00 - 20.00
1561028400 21.00 20.00 - 21.00 110° 15
1561032000 22.00 21.00 - 22.00 110° 5
1561035600 23.00 22.00 - 23.00 130° 40 20
1561039200 0.00 23.00 - 0.00 100° 15
1561042800 1.00 0.00 - 1.00 90° 15
1561046400 2.00 1.00 - 2.00
1561050000 3.00 2.00 - 3.00 120° 15
1561053600 4.00 3.00 - 4.00 90° 10
1561057200 5.00 4.00 - 5.00 110° 15
1561060800 6.00 5.00 - 6.00 100° 20
1561064400 7.00 6.00 - 7.00 90° 40 20

Ihre Wetterstation

Fehlt Ihre Wetterstation auf unserem Portal?

Schreiben Sie an network@meteonews.ch

Klima

Wann ist es am wärmsten? Wann regnet es am wenigsten? Unsere Klimadaten geben Auskunft.